Time;durP1;ratioP1;P1;durP2;ratioP2;P2;SDS_P1;SDS_P2;PMS_P1;PMS_P2;Temp;Humidity;BMP_temperature;BMP_pressure;BME280_temperature;BME280_humidity;BME280_pressure;Samples;Min_cycle;Max_cycle;Signal;HPM_P1;HPM_P2
2021/04/01 00:02:13;;;;;;;23.60;10.57;;;;;;;9.26;100.00;101973.28;5223744;28;20031;-66
2021/04/01 00:04:44;;;;;;;22.17;12.00;;;;;;;9.24;100.00;101972.59;5236816;28;20106;-66
2021/04/01 00:07:14;;;;;;;28.55;11.80;;;;;;;9.21;100.00;101970.16;5236836;28;20048;-66
2021/04/01 00:09:45;;;;;;;24.75;12.40;;;;;;;9.19;100.00;101971.28;5222826;28;20166;-66
2021/04/01 00:12:16;;;;;;;27.60;13.05;;;;;;;9.18;100.00;101967.72;5231504;28;20384;-67
2021/04/01 00:14:47;;;;;;;29.73;13.27;;;;;;;9.15;100.00;101959.13;5241895;28;20036;-66
2021/04/01 00:17:18;;;;;;;24.75;11.73;;;;;;;9.15;100.00;101961.81;5227325;28;20021;-67
2021/04/01 00:19:48;;;;;;;28.20;13.55;;;;;;;9.18;100.00;101958.84;5223007;28;20035;-66
2021/04/01 00:22:18;;;;;;;32.78;13.45;;;;;;;9.18;100.00;101959.69;5227407;28;20546;-66
2021/04/01 00:24:49;;;;;;;30.42;13.27;;;;;;;9.23;100.00;101952.13;5232142;28;20159;-66
2021/04/01 00:27:19;;;;;;;32.90;12.65;;;;;;;9.23;100.00;101961.97;5235964;28;20103;-69
2021/04/01 00:29:50;;;;;;;22.88;12.15;;;;;;;9.20;100.00;101954.22;5222878;28;20032;-67
2021/04/01 00:32:20;;;;;;;33.22;14.88;;;;;;;9.20;100.00;101948.88;5236753;28;20445;-66
2021/04/01 00:34:51;;;;;;;33.63;15.85;;;;;;;9.17;100.00;101946.44;5222620;28;20457;-67
2021/04/01 00:37:21;;;;;;;32.70;14.77;;;;;;;9.15;100.00;101948.41;5223467;28;20013;-66
2021/04/01 00:39:52;;;;;;;28.13;13.52;;;;;;;9.12;100.00;101946.84;5236961;28;20020;-67
2021/04/01 00:42:22;;;;;;;22.73;11.50;;;;;;;9.06;100.00;101948.19;5243483;28;20471;-66
2021/04/01 00:44:59;;;;;;;31.00;14.82;;;;;;;8.97;100.00;101950.81;5243636;28;20028;-69
2021/04/01 00:47:41;;;;;;;30.42;13.05;;;;;;;8.92;100.00;101950.34;5243251;28;20027;-66
2021/04/01 00:50:16;;;;;;;28.50;14.23;;;;;;;8.86;100.00;101951.72;5236941;28;20025;-66
2021/04/01 00:52:46;;;;;;;28.60;14.18;;;;;;;8.82;100.00;101950.25;5222762;28;20021;-67
2021/04/01 00:55:17;;;;;;;26.60;14.77;;;;;;;8.83;100.00;101941.25;5235997;28;20531;-66
2021/04/01 00:57:50;;;;;;;30.77;14.65;;;;;;;8.82;100.00;101943.06;5234993;28;20472;-68
2021/04/01 01:00:25;;;;;;;36.63;14.32;;;;;;;8.79;100.00;101939.84;5222255;28;20017;-67
2021/04/01 01:02:56;;;;;;;28.13;14.88;;;;;;;8.75;100.00;101933.88;5239785;28;20020;-66
2021/04/01 01:05:30;;;;;;;26.30;13.52;;;;;;;8.73;100.00;101932.28;5233167;28;20021;-69
2021/04/01 01:08:02;;;;;;;36.83;15.32;;;;;;;8.71;100.00;101926.22;5235505;28;20039;-67
2021/04/01 01:10:33;;;;;;;31.63;13.65;;;;;;;8.69;100.00;101930.88;5236009;28;20020;-65
2021/04/01 01:13:04;;;;;;;32.63;15.02;;;;;;;8.68;100.00;101931.81;5234651;28;20362;-66
2021/04/01 01:15:35;;;;;;;31.48;14.80;;;;;;;8.67;100.00;101927.47;5229990;28;20032;-66
2021/04/01 01:18:06;;;;;;;32.55;14.48;;;;;;;8.66;100.00;101920.41;5233708;28;20489;-66
2021/04/01 01:20:37;;;;;;;34.08;14.95;;;;;;;8.66;100.00;101923.94;5221559;28;20040;-68
2021/04/01 01:23:08;;;;;;;23.95;13.25;;;;;;;8.65;100.00;101924.06;5222577;28;20025;-66
2021/04/01 01:25:39;;;;;;;25.95;13.02;;;;;;;8.63;100.00;101923.34;5236288;28;20074;-70
2021/04/01 01:28:09;;;;;;;23.45;12.68;;;;;;;8.57;100.00;101917.50;5222427;28;20033;-67
2021/04/01 01:30:40;;;;;;;24.33;12.80;;;;;;;8.53;100.00;101918.78;5228616;28;20523;-66
2021/04/01 01:33:16;;;;;;;34.55;15.30;;;;;;;8.52;100.00;101919.72;5228740;28;20021;-66
2021/04/01 01:35:49;;;;;;;30.88;15.13;;;;;;;8.51;100.00;101917.19;5223008;28;20021;-65
2021/04/01 01:38:21;;;;;;;32.13;16.08;;;;;;;8.50;100.00;101918.16;5222690;28;20024;-66
2021/04/01 01:40:51;;;;;;;40.15;17.25;;;;;;;8.46;100.00;101914.03;5236676;28;20059;-66
2021/04/01 01:43:22;;;;;;;40.85;19.20;;;;;;;8.45;100.00;101912.34;5229158;28;20075;-66
2021/04/01 01:45:53;;;;;;;32.55;15.50;;;;;;;8.46;100.00;101917.56;5238614;28;20511;-66
2021/04/01 01:48:25;;;;;;;39.03;17.15;;;;;;;8.53;100.00;101917.91;5246420;28;20358;-66
2021/04/01 01:50:59;;;;;;;36.58;15.68;;;;;;;8.62;100.00;101918.97;5246783;28;20020;-66
2021/04/01 01:53:29;;;;;;;32.72;16.27;;;;;;;8.66;100.00;101917.75;5239939;28;20033;-66
2021/04/01 01:56:04;;;;;;;36.75;16.55;;;;;;;8.71;100.00;101915.53;5240612;28;20025;-66
2021/04/01 01:58:35;;;;;;;34.63;16.83;;;;;;;8.71;100.00;101908.34;5246258;28;20377;-66
2021/04/01 02:01:06;;;;;;;38.67;17.17;;;;;;;8.70;100.00;101917.34;5233525;28;20025;-66
2021/04/01 02:03:41;;;;;;;33.92;16.75;;;;;;;8.67;100.00;101916.75;5236375;28;20029;-67
2021/04/01 02:06:19;;;;;;;41.30;17.33;;;;;;;8.63;100.00;101916.16;5231603;28;20035;-66
2021/04/01 02:08:50;;;;;;;32.63;16.88;;;;;;;8.59;100.00;101917.41;5246662;28;20025;-66
2021/04/01 02:11:21;;;;;;;33.38;17.17;;;;;;;8.53;100.00;101916.09;5225628;28;20047;-66
2021/04/01 02:13:59;;;;;;;30.83;16.10;;;;;;;8.49;100.00;101911.97;5237608;28;20021;-66
2021/04/01 02:16:29;;;;;;;33.20;16.95;;;;;;;8.46;100.00;101917.56;5223057;28;20119;-69
2021/04/01 02:19:00;;;;;;;39.58;17.88;;;;;;;8.45;100.00;101913.19;5235570;28;20024;-66
2021/04/01 02:21:30;;;;;;;40.60;18.95;;;;;;;8.47;100.00;101921.94;5225662;28;20025;-67
2021/04/01 02:24:01;;;;;;;39.38;19.15;;;;;;;8.51;100.00;101923.38;5230484;28;20039;-66
2021/04/01 02:26:31;;;;;;;43.38;21.15;;;;;;;8.53;100.00;101917.91;5246653;28;20032;-66
2021/04/01 02:29:02;;;;;;;34.67;17.40;;;;;;;8.54;100.00;101931.16;5226314;28;20028;-66
2021/04/01 02:31:32;;;;;;;44.13;18.67;;;;;;;8.53;100.00;101921.44;5238642;28;20051;-66
2021/04/01 02:34:03;;;;;;;42.83;18.73;;;;;;;8.53;100.00;101924.13;5225832;28;20500;-66
2021/04/01 02:36:33;;;;;;;39.55;19.25;;;;;;;8.52;100.00;101922.41;5225683;28;20482;-66
2021/04/01 02:39:04;;;;;;;43.75;19.08;;;;;;;8.53;100.00;101924.13;5233131;28;20021;-69
2021/04/01 02:41:34;;;;;;;35.25;19.02;;;;;;;8.50;100.00;101920.84;5230381;28;20044;-69
2021/04/01 02:44:06;;;;;;;35.92;17.98;;;;;;;8.48;100.00;101925.44;5225143;28;20039;-66
2021/04/01 02:46:36;;;;;;;38.72;19.02;;;;;;;8.52;100.00;101918.88;5228853;28;20024;-69
2021/04/01 02:49:06;;;;;;;39.10;18.98;;;;;;;8.50;100.00;101929.72;5234848;28;20021;-66
2021/04/01 02:51:37;;;;;;;40.80;18.90;;;;;;;8.45;100.00;101912.34;5225153;28;20108;-66
2021/04/01 02:54:07;;;;;;;34.28;18.00;;;;;;;8.42;100.00;101910.75;5225172;28;20079;-68
2021/04/01 02:56:38;;;;;;;40.33;17.38;;;;;;;8.40;100.00;101914.56;5238593;28;20098;-66
2021/04/01 02:59:09;;;;;;;37.35;19.10;;;;;;;8.36;100.00;101913.94;5224733;28;20044;-67
2021/04/01 03:01:40;;;;;;;42.67;19.27;;;;;;;8.32;100.00;101913.31;5239019;28;20052;-66
2021/04/01 03:04:11;;;;;;;36.95;19.13;;;;;;;8.32;100.00;101926.69;5225528;28;20520;-66
2021/04/01 03:06:41;;;;;;;49.15;21.35;;;;;;;8.35;100.00;101922.91;5245379;28;20427;-66
2021/04/01 03:09:11;;;;;;;43.03;19.80;;;;;;;8.34;100.00;101918.56;5228168;28;20020;-66
2021/04/01 03:11:42;;;;;;;38.30;17.95;;;;;;;8.36;100.00;101918.41;5235493;28;20453;-66
2021/04/01 03:14:12;;;;;;;38.20;18.85;;;;;;;8.40;100.00;101925.25;5237002;28;20400;-69
2021/04/01 03:16:43;;;;;;;44.90;19.95;;;;;;;8.43;100.00;101923.16;5224790;28;20064;-67
2021/04/01 03:19:13;;;;;;;38.42;18.48;;;;;;;8.47;100.00;101927.28;5237114;28;20070;-65
2021/04/01 03:21:45;;;;;;;42.05;20.10;;;;;;;8.47;100.00;101919.25;5225113;28;20025;-65
2021/04/01 03:24:17;;;;;;;46.63;21.10;;;;;;;8.44;100.00;101924.88;5231567;28;20530;-66
2021/04/01 03:26:47;;;;;;;37.58;18.95;;;;;;;8.40;100.00;101923.41;5230366;28;20030;-66
2021/04/01 03:29:18;;;;;;;37.88;18.20;;;;;;;8.35;100.00;101924.75;5232521;28;20025;-67
2021/04/01 03:31:48;;;;;;;47.85;21.13;;;;;;;8.29;100.00;101926.09;5228843;28;20016;-67
2021/04/01 03:34:19;;;;;;;37.80;18.98;;;;;;;8.25;100.00;101924.66;5224843;28;20373;-66
2021/04/01 03:36:49;;;;;;;47.17;22.27;;;;;;;8.18;100.00;101929.66;5228184;28;20042;-67
2021/04/01 03:39:20;;;;;;;41.03;20.25;;;;;;;8.17;100.00;101927.06;5244376;28;20020;-66
2021/04/01 03:41:50;;;;;;;42.15;20.73;;;;;;;8.14;100.00;101925.53;5244914;28;20070;-66
2021/04/01 03:44:21;;;;;;;42.75;21.60;;;;;;;8.13;100.00;101930.97;5232024;28;20108;-67
2021/04/01 03:46:51;;;;;;;47.47;22.40;;;;;;;8.10;100.00;101929.41;5242883;28;20025;-69
2021/04/01 03:49:22;;;;;;;43.22;21.70;;;;;;;8.08;100.00;101925.16;5244349;28;20020;-66
2021/04/01 03:51:52;;;;;;;43.30;20.38;;;;;;;8.08;100.00;101933.16;5244816;28;20085;-67
2021/04/01 03:54:22;;;;;;;46.28;22.40;;;;;;;8.05;100.00;101928.94;5244415;28;20062;-66
2021/04/01 03:56:53;;;;;;;45.58;22.17;;;;;;;8.03;100.00;101930.84;5235705;28;20024;-66
2021/04/01 03:59:27;;;;;;;54.15;22.60;;;;;;;8.02;100.00;101932.69;5223529;28;20028;-70
2021/04/01 04:02:09;;;;;;;41.47;21.70;;;;;;;7.99;100.00;101942.78;5223063;28;20047;-67
2021/04/01 04:10:07;;;;;;;50.65;20.40;;;;;;;7.93;100.00;101941.47;5223420;28;20025;-66
2021/04/01 04:12:47;;;;;;;48.58;22.88;;;;;;;7.90;100.00;101938.19;5228734;28;20470;-66
2021/04/01 04:15:22;;;;;;;45.08;23.67;;;;;;;7.82;100.00;101940.59;5231175;28;20607;-69
2021/04/01 04:17:52;;;;;;;48.42;22.92;;;;;;;7.75;100.00;101937.56;5223128;28;20032;-66
2021/04/01 04:20:23;;;;;;;45.58;22.30;;;;;;;7.67;100.00;101935.50;5223179;28;20107;-66
2021/04/01 04:22:53;;;;;;;50.20;22.33;;;;;;;7.61;100.00;101940.47;5232247;28;20073;-66
2021/04/01 04:25:25;;;;;;;51.83;22.67;;;;;;;7.53;100.00;101936.59;5228154;28;20505;-66
2021/04/01 04:30:28;;;;;;;50.42;23.58;;;;;;;7.41;100.00;101942.88;5240424;28;20027;-69
2021/04/01 04:32:58;;;;;;;48.30;21.77;;;;;;;7.37;100.00;101943.22;5244087;28;20405;-66
2021/04/01 04:35:29;;;;;;;51.90;21.98;;;;;;;7.35;100.00;101947.84;5244114;28;20029;-66
2021/04/01 04:38:00;;;;;;;58.33;22.60;;;;;;;7.31;100.00;101943.72;5243740;28;20747;-66
2021/04/01 04:40:31;;;;;;;55.80;22.95;;;;;;;7.28;100.00;101944.81;5242606;28;20404;-67
2021/04/01 04:43:02;;;;;;;53.05;23.15;;;;;;;7.25;100.00;101947.69;5230284;28;20078;-66
2021/04/01 04:45:32;;;;;;;48.05;23.33;;;;;;;7.21;100.00;101956.91;5231165;28;20108;-66
2021/04/01 04:48:03;;;;;;;58.95;23.48;;;;;;;7.16;100.00;101949.25;5228290;28;20021;-67
2021/04/01 04:50:33;;;;;;;40.80;20.83;;;;;;;7.13;100.00;101949.50;5222836;28;20020;-66
2021/04/01 04:53:04;;;;;;;45.78;19.67;;;;;;;7.10;100.00;101960.41;5222120;28;20029;-66
2021/04/01 04:55:35;;;;;;;44.33;19.73;;;;;;;7.05;100.00;101957.22;5223498;28;20493;-66
2021/04/01 04:58:11;;;;;;;39.95;19.50;;;;;;;7.00;100.00;101959.41;5236075;28;20025;-66
2021/04/01 05:06:34;;;;;;;42.13;19.92;;;;;;;6.97;100.00;101972.94;5240954;28;20025;-66
2021/04/01 05:09:05;;;;;;;44.67;20.90;;;;;;;6.98;100.00;101964.00;5228107;28;20499;-66
2021/04/01 05:11:35;;;;;;;52.83;22.55;;;;;;;6.93;100.00;101959.00;5234017;28;20231;-69
2021/04/01 05:14:06;;;;;;;43.08;21.20;;;;;;;6.90;100.00;101951.22;5236023;28;20480;-66
2021/04/01 05:16:36;;;;;;;45.13;21.55;;;;;;;6.87;100.00;101961.28;5223699;28;20527;-66
2021/04/01 05:19:09;;;;;;;47.75;21.88;;;;;;;6.84;100.00;101962.38;5222772;28;20500;-65
2021/04/01 05:21:59;;;;;;;51.45;22.17;;;;;;;6.82;100.00;101958.94;5223701;28;20128;-67
2021/04/01 05:24:30;;;;;;;44.05;20.42;;;;;;;6.82;100.00;101958.09;5223326;28;20039;-67
2021/04/01 05:27:09;;;;;;;50.45;21.67;;;;;;;6.80;100.00;101960.88;5227227;28;20033;-65
2021/04/01 05:29:40;;;;;;;45.08;22.23;;;;;;;6.81;100.00;101967.91;5233495;28;20029;-68
2021/04/01 05:32:12;;;;;;;50.30;21.60;;;;;;;6.82;100.00;101958.94;5229709;28;20056;-66
2021/04/01 05:34:44;;;;;;;46.63;21.08;;;;;;;6.85;100.00;101963.22;5231024;28;20067;-66
2021/04/01 05:37:14;;;;;;;47.75;21.48;;;;;;;6.88;100.00;101965.66;5223137;28;20024;-65
2021/04/01 05:39:46;;;;;;;49.45;21.45;;;;;;;6.91;100.00;101974.28;5222374;28;20032;-69
2021/04/01 05:42:20;;;;;;;36.67;18.77;;;;;;;6.94;100.00;101982.06;5234525;28;20017;-67
2021/04/01 05:44:59;;;;;;;37.03;16.98;;;;;;;7.10;100.00;101992.41;5233644;28;20120;-66
2021/04/01 05:47:40;;;;;;;44.30;20.83;;;;;;;7.17;100.00;102004.31;5222351;28;20108;-69
2021/04/01 05:53:29;;;;;;;42.63;22.73;;;;;;;7.25;100.00;102011.75;5222278;28;20390;-66
2021/04/01 06:04:15;;;;;;;54.97;21.77;;;;;;;7.65;100.00;102014.91;5221398;28;20029;-67
2021/04/01 06:06:53;;;;;;;52.72;22.77;;;;;;;7.79;100.00;102022.69;5243132;28;20473;-69
2021/04/01 06:09:27;;;;;;;52.45;22.85;;;;;;;7.95;100.00;102027.69;5228797;28;20031;-66
2021/04/01 06:11:57;;;;;;;54.10;22.95;;;;;;;8.11;100.00;102037.16;5245799;28;20012;-66
2021/04/01 06:14:42;;;;;;;63.17;24.35;;;;;;;8.21;100.00;102038.97;5222817;28;20061;-66
2021/04/01 06:17:17;;;;;;;54.83;23.42;;;;;;;8.36;100.00;102036.06;5237445;28;20549;-68
2021/04/01 06:19:48;;;;;;;44.13;22.27;;;;;;;8.49;100.00;102039.50;5221919;28;20078;-66
2021/04/01 06:22:21;;;;;;;46.35;21.23;;;;;;;8.57;100.00;102035.22;5221930;28;20397;-68
2021/04/01 06:24:53;;;;;;;52.88;22.02;;;;;;;8.69;100.00;102032.53;5222940;28;20029;-67
2021/04/01 06:27:38;;;;;;;45.90;21.02;;;;;;;8.82;100.00;102033.22;5231615;28;20048;-67
2021/04/01 06:30:22;;;;;;;59.70;22.77;;;;;;;8.95;100.00;102036.59;5243773;28;20502;-67
2021/04/01 06:33:07;;;;;;;44.60;21.58;;;;;;;9.15;100.00;102039.44;5225461;28;20029;-68
2021/04/01 06:35:47;;;;;;;51.83;22.52;;;;;;;9.28;100.00;102043.63;5239195;28;20493;-66
2021/04/01 06:40:53;;;;;;;50.90;22.60;;;;;;;9.60;100.00;102048.09;5235474;28;20016;-66
2021/04/01 06:43:32;;;;;;;56.95;24.13;;;;;;;9.74;100.00;102041.53;5232295;28;20039;-66
2021/04/01 06:46:07;;;;;;;56.83;24.02;;;;;;;9.85;100.00;102053.06;5233544;28;20410;-66
2021/04/01 06:51:31;;;;;;;63.08;23.33;;;;;;;10.15;100.00;102050.53;5225016;28;20021;-67
2021/04/01 06:59:44;;;;;;;52.90;21.55;;;;;;;10.69;100.00;102043.97;5243040;28;20164;-67
2021/04/01 07:02:27;;;;;;;52.85;22.13;;;;;;;10.85;100.00;102044.28;5224741;28;20428;-66
2021/04/01 07:05:11;;;;;;;55.80;21.52;;;;;;;11.02;100.00;102032.00;5233276;28;20027;-68
2021/04/01 07:07:47;;;;;;;54.67;20.23;;;;;;;11.22;100.00;102040.91;5241451;28;20021;-66
2021/04/01 07:13:00;;;;;;;48.50;21.42;;;;;;;11.55;100.00;102031.56;5229772;28;20021;-67
2021/04/01 07:15:34;;;;;;;62.15;23.67;;;;;;;11.70;100.00;102035.50;5238240;28;20044;-67
2021/04/01 07:18:48;;;;;;;61.22;23.65;;;;;;;11.94;100.00;102032.34;5230394;28;20117;-67
2021/04/01 07:30:47;;;;;;;50.53;21.40;;;;;;;12.41;100.00;102029.63;5224711;28;20028;-67
2021/04/01 07:46:43;;;;;;;60.45;27.15;;;;;;;13.92;100.00;102048.56;5224297;28;20017;-67
2021/04/01 07:49:16;;;;;;;56.40;25.38;;;;;;;14.07;100.00;102046.13;5223417;28;20344;-66
2021/04/01 07:52:01;;;;;;;66.22;27.20;;;;;;;14.15;100.00;102051.56;5237934;28;20025;-68
2021/04/01 07:54:51;;;;;;;64.07;27.70;;;;;;;14.36;100.00;102045.78;5239279;28;20111;-67
2021/04/01 07:57:42;;;;;;;59.92;25.98;;;;;;;14.54;100.00;102049.25;5244866;28;20027;-67
2021/04/01 08:00:18;;;;;;;63.08;26.65;;;;;;;14.75;100.00;102046.94;5223656;28;20029;-67
2021/04/01 08:02:58;;;;;;;57.10;25.60;;;;;;;14.98;100.00;102044.47;5236551;28;20033;-67
2021/04/01 08:05:34;;;;;;;62.70;26.58;;;;;;;15.21;100.00;102049.22;5223858;28;20025;-67
2021/04/01 08:08:09;;;;;;;59.17;25.40;;;;;;;15.30;100.00;102050.94;5236992;28;20017;-69
2021/04/01 08:10:45;;;;;;;;;;;;;;;15.39;100.00;102055.31;5225575;28;20467;-67
2021/04/01 08:13:27;;;;;;;66.80;27.27;;;;;;;15.64;100.00;102055.34;5241764;28;20412;-67
2021/04/01 08:16:04;;;;;;;72.93;30.13;;;;;;;15.93;100.00;102063.78;5230979;28;20481;-67
2021/04/01 08:18:37;;;;;;;90.60;32.88;;;;;;;16.23;100.00;102064.91;5232568;28;20485;-67
2021/04/01 08:21:10;;;;;;;85.57;29.42;;;;;;;16.51;100.00;102067.16;5231084;28;20025;-67
2021/04/01 08:23:45;;;;;;;74.45;29.85;;;;;;;16.71;100.00;102075.69;5228145;28;20033;-67
2021/04/01 08:26:25;;;;;;;84.22;30.33;;;;;;;16.98;100.00;102071.69;5233829;28;20104;-67
2021/04/01 08:32:13;;;;;;;72.78;29.08;;;;;;;17.31;83.26;102073.16;5222820;28;20549;-67
2021/04/01 08:34:47;;;;;;;69.90;27.77;;;;;;;17.39;91.13;102074.97;5223476;28;20059;-68
2021/04/01 08:37:24;;;;;;;73.13;30.20;;;;;;;17.53;100.00;102078.78;5223410;28;20264;-67
2021/04/01 08:39:58;;;;;;;76.78;29.83;;;;;;;17.58;95.24;102087.22;5222456;28;20493;-67
2021/04/01 08:42:55;;;;;;;74.50;29.92;;;;;;;17.69;82.97;102080.50;5223483;28;20060;-67
2021/04/01 08:45:50;;;;;;;69.10;29.27;;;;;;;17.81;86.34;102085.31;5223602;28;20025;-68
2021/04/01 08:48:31;;;;;;;79.10;31.17;;;;;;;17.80;85.85;102082.78;5235398;28;20116;-68
2021/04/01 08:51:13;;;;;;;73.63;28.00;;;;;;;17.82;89.66;102078.88;5236070;28;20024;-67
2021/04/01 08:53:58;;;;;;;79.47;32.05;;;;;;;17.80;88.22;102078.22;5222989;28;20389;-67
2021/04/01 08:56:52;;;;;;;79.07;32.03;;;;;;;17.97;91.19;102080.75;5240941;28;20028;-68
2021/04/01 08:59:36;;;;;;;65.35;27.75;;;;;;;18.12;91.40;102081.63;5227841;28;20028;-67
2021/04/01 09:02:12;;;;;;;72.25;29.08;;;;;;;18.20;84.06;102092.41;5233987;28;20016;-67
2021/04/01 09:04:49;;;;;;;74.30;29.52;;;;;;;18.27;85.40;102082.50;5224346;28;20477;-66
2021/04/01 09:07:37;;;;;;;73.65;29.17;;;;;;;18.45;74.74;102081.25;5235633;28;20028;-68
2021/04/01 09:10:20;;;;;;;71.82;31.13;;;;;;;18.55;86.47;102084.53;5224350;28;20017;-68
2021/04/01 09:13:22;;;;;;;72.75;29.35;;;;;;;18.66;89.59;102081.31;5226462;28;20048;-68
2021/04/01 09:15:50;;;;;;;70.55;28.67;;;;;;;18.61;72.77;102084.59;5238962;28;20016;-67
2021/04/01 09:18:24;;;;;;;74.50;29.08;;;;;;;18.84;67.57;102080.97;5241189;28;20020;-67
2021/04/01 09:20:59;;;;;;;63.75;27.30;;;;;;;19.15;76.66;102084.22;5229657;28;20362;-67
2021/04/01 09:23:39;;;;;;;67.03;27.08;;;;;;;19.39;76.97;102074.03;5229371;28;20029;-68
2021/04/01 09:26:12;;;;;;;61.92;27.35;;;;;;;19.63;59.88;102079.09;5222231;28;20102;-68
2021/04/01 09:28:44;;;;;;;61.58;24.70;;;;;;;19.72;66.83;102081.66;5235634;28;20029;-68
2021/04/01 09:31:14;;;;;;;53.58;23.27;;;;;;;19.75;73.01;102082.09;5222256;28;20033;-69
2021/04/01 09:33:46;;;;;;;54.03;24.10;;;;;;;19.66;69.56;102086.84;5240594;28;20074;-67
2021/04/01 09:36:20;;;;;;;55.95;23.65;;;;;;;19.71;64.02;102085.41;5242985;28;20020;-68
2021/04/01 09:38:53;;;;;;;57.78;23.05;;;;;;;19.95;68.73;102085.00;5223582;28;20021;-68
2021/04/01 09:41:48;;;;;;;48.95;21.02;;;;;;;20.13;60.65;102089.91;5222092;28;20029;-68
2021/04/01 09:44:19;;;;;;;51.30;22.50;;;;;;;20.06;71.42;102089.03;5240577;28;20041;-68
2021/04/01 09:47:01;;;;;;;49.53;21.02;;;;;;;20.26;67.86;102091.91;5226358;28;20329;-68
2021/04/01 09:49:45;;;;;;;46.90;20.50;;;;;;;20.50;60.49;102082.44;5241097;28;20040;-68
2021/04/01 09:52:23;;;;;;;41.10;17.83;;;;;;;20.52;56.87;102091.22;5222367;28;20029;-68
2021/04/01 09:54:56;;;;;;;34.47;16.35;;;;;;;20.33;57.87;102090.91;5222669;28;20024;-68
2021/04/01 09:57:45;;;;;;;37.70;16.95;;;;;;;20.50;59.23;102091.44;5234837;28;20024;-68
2021/04/01 10:03:02;;;;;;;38.72;15.65;;;;;;;20.56;57.57;102095.25;5229659;28;20032;-67
2021/04/01 10:05:40;;;;;;;43.00;17.33;;;;;;;20.53;58.74;102082.84;5225746;28;20103;-68
2021/04/01 10:08:21;;;;;;;40.90;17.20;;;;;;;20.68;61.55;102093.63;5234011;28;20108;-70
2021/04/01 10:10:55;;;;;;;41.50;18.58;;;;;;;20.52;59.23;102089.34;5239928;28;20020;-68
2021/04/01 10:13:29;;;;;;;43.97;17.85;;;;;;;20.85;59.43;102086.78;5241301;28;20020;-68
2021/04/01 10:16:00;;;;;;;47.20;17.65;;;;;;;20.77;55.01;102086.09;5232368;28;20396;-68
2021/04/01 10:18:34;;;;;;;45.13;18.40;;;;;;;20.66;59.44;102084.81;5235595;28;20025;-69
2021/04/01 10:21:10;;;;;;;42.85;18.75;;;;;;;20.80;56.01;102082.97;5225667;28;20031;-68
2021/04/01 10:23:52;;;;;;;52.85;19.67;;;;;;;20.78;57.56;102079.59;5225766;28;20059;-68
2021/04/01 10:26:30;;;;;;;46.90;18.48;;;;;;;20.85;58.94;102086.78;5236624;28;20036;-68
2021/04/01 10:31:46;;;;;;;52.30;20.00;;;;;;;20.59;61.80;102090.25;5225652;28;20115;-68
2021/04/01 10:34:32;;;;;;;47.65;19.67;;;;;;;21.12;63.94;102081.38;5225519;28;20039;-67
2021/04/01 10:37:07;;;;;;;52.28;20.95;;;;;;;21.26;64.47;102082.25;5225002;28;20035;-68
2021/04/01 10:39:39;;;;;;;;;;;;;;;21.20;61.63;102086.66;5238764;28;20021;-70
2021/04/01 10:42:12;;;;;;;51.00;21.30;;;;;;;21.25;63.41;102088.78;5239070;28;19924;-70
2021/04/01 10:44:42;;;;;;;57.90;22.80;;;;;;;21.30;56.10;102083.53;5226877;28;20108;-68
2021/04/01 10:47:15;;;;;;;53.92;22.90;;;;;;;21.29;57.16;102084.59;5236692;28;20115;-68
2021/04/01 10:49:47;;;;;;;52.80;22.83;;;;;;;21.56;61.65;102085.47;5227616;28;20099;-66
2021/04/01 10:52:17;;;;;;;54.42;23.73;;;;;;;21.61;61.14;102078.34;5246046;28;20069;-68
2021/04/01 10:54:48;;;;;;;57.72;22.92;;;;;;;21.61;64.24;102082.97;5228127;28;20431;-69
2021/04/01 10:57:27;;;;;;;56.97;23.00;;;;;;;21.63;61.59;102081.69;5225751;28;20120;-68
2021/04/01 10:59:59;;;;;;;67.43;24.73;;;;;;;21.59;61.84;102083.19;5237796;28;20508;-69
2021/04/01 11:02:35;;;;;;;66.15;27.55;;;;;;;21.57;60.13;102090.72;5238753;28;20025;-69
2021/04/01 11:05:11;;;;;;;61.92;26.55;;;;;;;21.65;61.42;102084.22;5233848;28;20471;-68
2021/04/01 11:07:47;;;;;;;75.57;27.35;;;;;;;21.76;61.64;102088.22;5245594;28;20029;-68
2021/04/01 11:10:25;;;;;;;74.43;29.60;;;;;;;21.77;63.77;102088.00;5235217;28;20032;-68
2021/04/01 11:12:59;;;;;;;72.40;28.85;;;;;;;21.85;63.29;102086.97;5238326;28;20040;-70
2021/04/01 11:15:31;;;;;;;69.80;29.45;;;;;;;21.77;62.49;102098.94;5224709;28;20455;-69
2021/04/01 11:18:05;;;;;;;71.63;30.45;;;;;;;21.55;62.01;102089.28;5225283;28;20375;-69
2021/04/01 11:20:38;;;;;;;73.03;31.92;;;;;;;21.37;62.89;102098.91;5223661;28;20048;-69
2021/04/01 11:23:11;;;;;;;74.28;32.80;;;;;;;21.77;64.21;102092.63;5235626;28;20047;-69
2021/04/01 11:25:47;;;;;;;81.85;35.38;;;;;;;21.65;61.31;102100.63;5231821;28;20112;-69
2021/04/01 11:28:18;;;;;;;81.22;34.30;;;;;;;21.40;62.31;102101.22;5231849;28;20460;-69
2021/04/01 11:30:52;;;;;;;81.50;35.13;;;;;;;21.68;62.78;102105.66;5244093;28;20104;-69
2021/04/01 11:33:25;;;;;;;87.97;36.17;;;;;;;21.74;67.23;102104.84;5230400;28;20612;-69
2021/04/01 11:36:01;;;;;;;79.82;37.63;;;;;;;21.96;68.86;102097.25;5224436;28;20029;-69
2021/04/01 11:38:38;;;;;;;77.18;37.20;;;;;;;21.52;63.74;102108.78;5227549;28;20024;-69
2021/04/01 11:41:12;;;;;;;82.78;36.95;;;;;;;21.64;59.74;102101.69;5232432;28;20086;-70
2021/04/01 11:43:43;;;;;;;78.00;34.38;;;;;;;21.55;63.10;102103.75;5236696;28;20075;-70
2021/04/01 11:46:17;;;;;;;79.95;33.60;;;;;;;21.50;60.04;102113.63;5223989;28;20028;-69
2021/04/01 11:48:49;;;;;;;82.45;35.60;;;;;;;21.58;59.13;102113.41;5236698;28;20071;-69
2021/04/01 11:51:24;;;;;;;81.45;34.40;;;;;;;21.86;60.57;102115.94;5223250;28;20104;-69
2021/04/01 11:53:55;;;;;;;86.57;37.90;;;;;;;21.91;65.36;102117.00;5223142;28;20066;-71
2021/04/01 11:56:35;;;;;;;89.40;38.80;;;;;;;21.66;59.74;102113.22;5236737;28;20428;-69
2021/04/01 11:59:08;;;;;;;79.65;36.90;;;;;;;21.72;59.08;102115.09;5236068;28;20016;-69
2021/04/01 12:01:53;;;;;;;81.97;35.88;;;;;;;21.66;61.37;102113.22;5223844;28;20035;-69
2021/04/01 12:04:25;;;;;;;70.40;29.95;;;;;;;21.61;53.28;102119.31;5222703;28;20528;-70
2021/04/01 12:06:56;;;;;;;75.13;32.90;;;;;;;21.48;49.62;102112.97;5234728;28;20025;-69
2021/04/01 12:09:27;;;;;;;73.80;32.08;;;;;;;21.46;51.93;102122.22;5225146;28;20024;-69
2021/04/01 12:11:58;;;;;;;65.43;30.92;;;;;;;21.59;53.54;102120.56;5219352;28;20021;-69
2021/04/01 12:14:34;;;;;;;81.53;33.40;;;;;;;21.62;52.77;102106.50;5223200;28;20214;-69
2021/04/01 12:17:06;;;;;;;87.20;34.65;;;;;;;21.44;54.46;102112.56;5234776;28;20392;-70
2021/04/01 12:19:37;;;;;;;82.97;34.88;;;;;;;21.47;53.38;102109.41;5221444;28;20017;-69
2021/04/01 12:22:08;;;;;;;78.65;33.78;;;;;;;21.50;53.29;102113.63;5221337;28;20032;-70
2021/04/01 12:24:39;;;;;;;81.60;36.42;;;;;;;21.31;54.51;102109.81;5241269;28;20024;-70
2021/04/01 12:27:10;;;;;;;80.40;37.22;;;;;;;21.14;54.26;102112.06;5223836;28;20029;-69
2021/04/01 12:29:44;;;;;;;89.07;41.55;;;;;;;21.25;67.57;102106.00;5231197;28;20385;-70
2021/04/01 12:32:25;;;;;;;95.25;43.95;;;;;;;21.13;58.96;102102.16;5228657;28;20361;-69
2021/04/01 12:35:05;;;;;;;100.70;47.22;;;;;;;20.78;61.97;102099.53;5227032;28;20047;-69
2021/04/01 12:37:37;;;;;;;97.47;44.30;;;;;;;21.14;65.38;102112.06;5231638;28;20021;-71
2021/04/01 12:40:11;;;;;;;107.53;48.03;;;;;;;20.91;61.68;102105.03;5235196;28;20047;-69
2021/04/01 12:42:43;;;;;;;104.80;48.72;;;;;;;20.69;63.42;102104.34;5240511;28;20029;-70
2021/04/01 12:45:16;;;;;;;108.10;47.03;;;;;;;20.67;65.82;102113.75;5235463;28;20171;-69
2021/04/01 12:47:47;;;;;;;107.72;47.92;;;;;;;21.12;65.03;102109.50;5219262;28;20114;-70
2021/04/01 12:50:18;;;;;;;102.43;49.50;;;;;;;20.92;61.22;102122.25;5239771;28;20150;-69
2021/04/01 12:52:52;;;;;;;107.88;51.85;;;;;;;21.14;69.52;102115.63;5240123;28;20104;-69